Terminal Aerodrome Forecast
Issued by NWS

Home | Current Version | Previous Version | Text Only | Print | Product List | Glossary On
Versions: 1 2 3 4 5 6 7 8 9 10 11 12 13 14 15 16 17 18 19 20 21
000
FTUS44 KTSA 300838 AAB
TAFXNA
TAF AMD
KXNA 300838Z 3009/0106 14006KT 4SM -RA BR FEW006 BKN011 OVC020
     FM301700 21020G30KT P6SM OVC020
     FM302100 21025G35KT P6SM BKN025
     FM010200 24020G30KT P6SM OVC025=

USA.gov is the U.S. government's official web portal to all federal, state and local government web resources and services.